Muldon, Mississippi
Current Conditions -  °F | °C
As of 6:35 AM on Thursday 29 Jan 2015 (Local Time) from KM40 Reporting Station
Broken Clouds Broken Clouds  
Wind Chill: 45°   Ceiling: 11000
Heat Index: 48°   Visibility: 10mi
Dew Point: 34°   Wind: 7mph
Humidity: 57%   Direction: 170°S
Pressure: 30.18"   Gusts: NA
Location:  33.8251°N, 88.6185°W
Report Text: KM40 291235Z AUTO 17006KT 10SM BKN110 09/01 A3018 RMK AO2
Loading
Personal Weather Stations






























Interactive Weather Map New forecast layout! Learn more

10-Day Weather Forecast

Advertisements
Track Severe Weather on mobile